Time;durP1;ratioP1;P1;durP2;ratioP2;P2;SDS_P1;SDS_P2;PMS_P1;PMS_P2;Temp;Humidity;BMP_temperature;BMP_pressure;BME280_temperature;BME280_humidity;BME280_pressure;Samples;Min_cycle;Max_cycle;Signal;HPM_P1;HPM_P2
2023/03/14 00:00:25;;;;;;;20.80;17.50;;;;;20.70;98000.00;;;;2072169;28;20246;-68
2023/03/14 00:01:26;;;;;;;21.27;18.97;;;;;20.70;98003.00;;;;2072184;28;20225;-68
2023/03/14 00:02:27;;;;;;;21.63;18.40;;;;;20.70;98012.00;;;;2063517;28;20693;-68
2023/03/14 00:03:28;;;;;;;19.60;17.10;;;;;20.70;98015.00;;;;2063571;28;20215;-67
2023/03/14 00:04:28;;;;;;;22.75;17.73;;;;;20.70;97999.00;;;;2072180;28;20229;-68
2023/03/14 00:05:29;;;;;;;21.60;17.50;;;;;20.70;98010.00;;;;2071989;28;20304;-68
2023/03/14 00:06:29;;;;;;;17.40;15.10;;;;;20.70;98007.00;;;;2072090;28;20222;-67
2023/03/14 00:07:33;;;;;;;20.20;17.87;;;;;20.70;98003.00;;;;2072293;28;20245;-67
2023/03/14 00:08:34;;;;;;;20.17;17.65;;;;;20.70;97993.00;;;;2071981;28;20217;-68
2023/03/14 00:09:34;;;;;;;18.33;14.83;;;;;20.70;97994.00;;;;2072120;28;20217;-68
2023/03/14 00:10:36;;;;;;;17.47;15.10;;;;;20.70;97986.00;;;;2072214;28;20213;-68
2023/03/14 00:11:36;;;;;;;17.85;15.30;;;;;20.70;97986.00;;;;2072088;28;20275;-68
2023/03/14 00:12:36;;;;;;;19.63;16.47;;;;;20.70;97983.00;;;;2072185;28;20264;-68
2023/03/14 00:13:37;;;;;;;17.50;15.40;;;;;20.70;97973.00;;;;2072119;28;20210;-68
2023/03/14 00:14:37;;;;;;;16.53;14.23;;;;;20.60;97959.00;;;;2071881;28;20229;-68
2023/03/14 00:15:37;;;;;;;17.93;15.80;;;;;20.70;97956.00;;;;2071963;28;20210;-67
2023/03/14 00:16:38;;;;;;;17.33;14.77;;;;;20.70;97963.00;;;;2072154;28;20222;-68
2023/03/14 00:17:38;;;;;;;16.70;14.33;;;;;20.30;97963.00;;;;2072060;28;20582;-68
2023/03/14 00:18:39;;;;;;;16.80;14.13;;;;;20.60;97952.00;;;;2071739;28;20225;-68
2023/03/14 00:19:39;;;;;;;16.10;12.83;;;;;20.60;97955.00;;;;2072084;28;20728;-68
2023/03/14 00:20:39;;;;;;;14.30;12.47;;;;;20.60;97955.00;;;;2071957;28;20296;-67
2023/03/14 00:21:40;;;;;;;15.67;13.13;;;;;20.60;97947.00;;;;2072063;28;20323;-68
2023/03/14 00:22:41;;;;;;;14.37;12.87;;;;;20.60;97943.00;;;;2071756;28;20226;-68
2023/03/14 00:23:41;;;;;;;15.37;13.10;;;;;20.60;97954.00;;;;2063375;28;20457;-68
2023/03/14 00:24:42;;;;;;;15.60;13.80;;;;;20.60;97939.00;;;;2063109;28;20227;-68
2023/03/14 00:25:42;;;;;;;15.43;12.43;;;;;20.60;97938.00;;;;2071824;28;20218;-68
2023/03/14 00:26:42;;;;;;;13.10;11.60;;;;;20.60;97946.00;;;;2072048;28;20211;-68
2023/03/14 00:27:43;;;;;;;15.73;11.63;;;;;20.60;97938.00;;;;2071942;28;20218;-68
2023/03/14 00:28:43;;;;;;;14.87;11.70;;;;;20.60;97953.00;;;;2071461;28;20213;-67
2023/03/14 00:29:44;;;;;;;13.53;11.50;;;;;20.60;97949.00;;;;2063304;28;20241;-68
2023/03/14 00:30:44;;;;;;;14.57;11.23;;;;;20.60;97952.00;;;;2063409;28;20206;-68
2023/03/14 00:31:44;;;;;;;13.47;10.90;;;;;20.60;97963.00;;;;2071999;28;20207;-67
2023/03/14 00:32:45;;;;;;;12.23;10.60;;;;;20.60;97970.00;;;;2072095;28;20209;-68
2023/03/14 00:33:45;;;;;;;12.77;10.17;;;;;20.60;97969.00;;;;2071725;28;20233;-68
2023/03/14 00:34:45;;;;;;;16.27;12.37;;;;;20.60;97970.00;;;;2071957;28;20705;-67
2023/03/14 00:36:03;;;;;;;11.97;10.30;;;;;20.60;97979.00;;;;2072014;28;20264;-68
2023/03/14 00:37:03;;;;;;;14.25;10.70;;;;;20.60;97982.00;;;;2063247;28;20225;-68
2023/03/14 00:38:03;;;;;;;11.50;10.30;;;;;20.60;97982.00;;;;2063238;28;20259;-68
2023/03/14 00:39:04;;;;;;;12.43;10.07;;;;;20.50;97987.00;;;;2071752;28;20217;-68
2023/03/14 00:40:07;;;;;;;12.40;10.33;;;;;20.60;97986.00;;;;2071947;28;20214;-68
2023/03/14 00:41:09;;;;;;;12.02;10.20;;;;;20.60;97998.00;;;;2063142;28;20219;-68
2023/03/14 00:42:09;;;;;;;11.45;10.05;;;;;20.60;98002.00;;;;2055475;28;20223;-68
2023/03/14 00:43:10;;;;;;;11.37;9.50;;;;;20.60;98010.00;;;;2063101;28;20786;-68
2023/03/14 00:44:10;;;;;;;11.77;9.60;;;;;20.60;98013.00;;;;2071361;28;20633;-67
2023/03/14 00:45:10;;;;;;;13.87;10.43;;;;;20.60;98026.00;;;;2071776;28;20606;-67
2023/03/14 00:46:11;;;;;;;11.10;9.03;;;;;20.60;98055.00;;;;2071890;28;20218;-68
2023/03/14 00:47:11;;;;;;;11.97;9.03;;;;;20.50;98025.00;;;;2071787;28;20210;-68
2023/03/14 00:48:13;;;;;;;11.27;9.00;;;;;20.50;98055.00;;;;2071410;28;20214;-68
2023/03/14 00:49:13;;;;;;;10.85;8.80;;;;;20.50;98058.00;;;;2071698;28;20298;-68
2023/03/14 00:50:13;;;;;;;9.50;8.10;;;;;20.50;98029.00;;;;2071692;28;20589;-68
2023/03/14 00:51:14;;;;;;;10.20;7.97;;;;;20.50;98054.00;;;;2071757;28;20574;-68
2023/03/14 00:52:15;;;;;;;10.23;7.65;;;;;20.50;98047.00;;;;2063171;28;20218;-68
2023/03/14 00:53:15;;;;;;;10.03;7.60;;;;;20.50;98050.00;;;;2063127;28;20211;-68
2023/03/14 00:54:16;;;;;;;10.40;7.27;;;;;20.50;98041.00;;;;2071799;28;20224;-68
2023/03/14 00:55:16;;;;;;;7.83;6.87;;;;;20.50;98053.00;;;;2071855;28;20225;-68
2023/03/14 00:56:16;;;;;;;8.83;6.80;;;;;20.50;98044.00;;;;2071845;28;20212;-68
2023/03/14 00:57:17;;;;;;;7.73;6.30;;;;;20.50;98042.00;;;;2071755;28;20220;-68
2023/03/14 00:58:17;;;;;;;7.40;6.13;;;;;20.50;98039.00;;;;2071418;28;20210;-64
2023/03/14 00:59:18;;;;;;;10.17;6.10;;;;;20.50;98041.00;;;;2062754;28;20219;-66
2023/03/14 01:00:18;;;;;;;9.83;6.53;;;;;20.50;98029.00;;;;2055676;28;20671;-66
2023/03/14 01:01:18;;;;;;;8.80;6.47;;;;;20.50;98024.00;;;;2063457;28;20215;-66
2023/03/14 01:02:19;;;;;;;8.53;5.80;;;;;20.50;98033.00;;;;2063317;28;20211;-66
2023/03/14 01:03:19;;;;;;;8.83;6.40;;;;;20.50;98033.00;;;;2063831;28;20218;-66
2023/03/14 01:04:19;;;;;;;7.13;5.30;;;;;20.50;98018.00;;;;2063304;28;20242;-66
2023/03/14 01:05:21;;;;;;;7.37;5.33;;;;;20.50;98013.00;;;;2070442;28;20229;-66
2023/03/14 01:06:23;;;;;;;6.68;5.22;;;;;20.50;98029.00;;;;2055012;28;20265;-66
2023/03/14 01:07:24;;;;;;;8.13;4.93;;;;;20.50;98025.00;;;;2054530;28;20667;-66
2023/03/14 01:08:24;;;;;;;5.70;4.67;;;;;20.50;98017.00;;;;2071464;28;20222;-66
2023/03/14 01:09:25;;;;;;;6.60;4.93;;;;;20.50;98016.00;;;;2062790;28;20219;-66
2023/03/14 01:10:25;;;;;;;8.30;5.00;;;;;20.50;98031.00;;;;2063039;28;20633;-66
2023/03/14 01:11:27;;;;;;;5.47;4.70;;;;;20.50;98017.00;;;;2071761;28;20229;-66
2023/03/14 01:12:28;;;;;;;5.97;4.40;;;;;20.50;98022.00;;;;2071526;28;20221;-66
2023/03/14 01:13:28;;;;;;;7.50;4.93;;;;;20.40;98018.00;;;;2071741;28;20238;-66
2023/03/14 01:14:28;;;;;;;7.90;5.50;;;;;20.40;98014.00;;;;2071474;28;20222;-66
2023/03/14 01:15:28;;;;;;;9.20;7.60;;;;;20.40;98006.00;;;;2071194;28;20276;-66
2023/03/14 01:16:31;;;;;;;7.77;6.40;;;;;20.40;98015.00;;;;2071423;28;20218;-66
2023/03/14 01:17:31;;;;;;;9.93;8.30;;;;;20.50;98017.00;;;;2071717;28;20214;-66
2023/03/14 01:18:32;;;;;;;13.93;10.60;;;;;20.50;98031.00;;;;2071144;28;20217;-66
2023/03/14 01:19:33;;;;;;;17.58;12.77;;;;;20.40;98024.00;;;;2071634;28;20221;-66
2023/03/14 01:20:33;;;;;;;20.20;13.87;;;;;20.40;98009.00;;;;2071625;28;20234;-66
2023/03/14 01:21:34;;;;;;;22.80;17.40;;;;;20.40;98021.00;;;;2070671;28;20221;-66
2023/03/14 01:22:35;;;;;;;24.10;18.77;;;;;20.40;98015.00;;;;2071632;28;20210;-66
2023/03/14 01:23:35;;;;;;;24.75;20.02;;;;;20.40;98008.00;;;;2071453;28;20511;-66
2023/03/14 01:24:36;;;;;;;33.90;25.37;;;;;20.40;98024.00;;;;2071619;28;20257;-66
2023/03/14 01:25:40;;;;;;;36.17;27.38;;;;;20.40;98013.00;;;;2071680;28;20218;-66
2023/03/14 01:26:41;;;;;;;36.00;28.60;;;;;20.40;98017.00;;;;2071302;28;20206;-66
2023/03/14 01:27:41;;;;;;;38.97;29.43;;;;;20.40;98018.00;;;;2071331;28;20242;-66
2023/03/14 01:28:41;;;;;;;48.23;34.03;;;;;20.40;98023.00;;;;2070850;28;20329;-66
2023/03/14 01:29:42;;;;;;;48.58;33.78;;;;;20.40;98036.00;;;;2071328;28;20370;-66
2023/03/14 01:30:42;;;;;;;47.43;35.17;;;;;20.40;98018.00;;;;2071616;28;20210;-66
2023/03/14 01:31:42;;;;;;;47.53;34.40;;;;;20.40;98015.00;;;;2071516;28;20206;-66
2023/03/14 01:32:43;;;;;;;46.63;33.27;;;;;20.40;98017.00;;;;2071410;28;20276;-66
2023/03/14 01:33:43;;;;;;;53.43;36.57;;;;;20.40;98015.00;;;;2071600;28;20214;-66
2023/03/14 01:34:44;;;;;;;50.27;37.30;;;;;20.40;98026.00;;;;2071443;28;20211;-66
2023/03/14 01:35:44;;;;;;;50.50;34.53;;;;;20.40;98016.00;;;;2071423;28;20207;-66
2023/03/14 01:36:44;;;;;;;49.60;38.33;;;;;20.40;98018.00;;;;2071415;28;20214;-66
2023/03/14 01:37:45;;;;;;;48.73;35.60;;;;;20.40;97998.00;;;;2071266;28;20554;-66
2023/03/14 01:38:45;;;;;;;48.00;36.40;;;;;20.40;98010.00;;;;2071118;28;20650;-66
2023/03/14 01:39:46;;;;;;;48.10;35.20;;;;;20.30;98001.00;;;;2071407;28;20602;-66
2023/03/14 01:40:47;;;;;;;53.85;36.25;;;;;20.30;98001.00;;;;2070368;28;20221;-66
2023/03/14 01:41:47;;;;;;;46.27;34.03;;;;;20.40;97993.00;;;;2071472;28;20206;-66
2023/03/14 01:43:12;;;;;;;53.00;36.83;;;;;20.40;97989.00;;;;2071220;28;20218;-66
2023/03/14 01:44:13;;;;;;;52.17;37.60;;;;;20.40;98003.00;;;;2062124;28;20278;-66
2023/03/14 01:45:50;;;;;;;53.67;38.70;;;;;20.40;97991.00;;;;2063689;28;20306;-66
2023/03/14 01:46:50;;;;;;;65.13;46.80;;;;;20.30;97994.00;;;;2071168;28;20632;-66
2023/03/14 01:47:51;;;;;;;61.97;45.87;;;;;20.40;97982.00;;;;2071397;28;20214;-66
2023/03/14 01:48:57;;;;;;;72.33;49.67;;;;;20.30;97971.00;;;;2071233;28;20202;-66
2023/03/14 01:50:17;;;;;;;72.28;52.65;;;;;20.40;98003.00;;;;2054690;28;20255;-66
2023/03/14 01:51:25;;;;;;;80.72;53.40;;;;;20.40;97986.00;;;;2058840;28;20578;-66
2023/03/14 01:52:31;;;;;;;72.07;52.25;;;;;20.40;97989.00;;;;2062483;28;20282;-66
2023/03/14 01:53:31;;;;;;;73.20;52.60;;;;;20.40;97957.00;;;;2056165;28;20223;-66
2023/03/14 01:54:55;;;;;;;75.90;54.37;;;;;20.40;97990.00;;;;2062684;28;20710;-66
2023/03/14 01:55:58;;;;;;;76.05;52.40;;;;;20.30;97983.00;;;;2065669;28;20206;-66
2023/03/14 01:57:24;;;;;;;71.10;51.08;;;;;20.30;97993.00;;;;2071236;28;20684;-66
2023/03/14 01:58:27;;;;;;;76.07;50.67;;;;;20.30;97990.00;;;;2062214;28;20219;-66
2023/03/14 01:59:27;;;;;;;65.78;48.25;;;;;20.30;97947.00;;;;2065536;28;20995;-67
2023/03/14 02:00:27;;;;;;;68.60;49.50;;;;;20.30;97981.00;;;;2054750;28;20304;-66
2023/03/14 02:01:28;;;;;;;69.20;49.53;;;;;20.30;97986.00;;;;2054744;28;20667;-66
2023/03/14 02:02:28;;;;;;;61.90;46.73;;;;;20.40;97994.00;;;;2071209;28;20686;-66
2023/03/14 02:03:29;;;;;;;65.07;47.97;;;;;20.30;97972.00;;;;2071251;28;20740;-66
2023/03/14 02:04:30;;;;;;;60.30;44.30;;;;;20.30;97986.00;;;;2062618;28;20257;-66
2023/03/14 02:05:32;;;;;;;62.67;45.90;;;;;20.30;97991.00;;;;2046406;28;20247;-66
2023/03/14 02:06:46;;;;;;;62.88;44.40;;;;;20.30;97986.00;;;;2054815;28;20215;-66
2023/03/14 02:07:56;;;;;;;53.88;41.35;;;;;20.30;97977.00;;;;2046280;28;20220;-66
2023/03/14 02:08:57;;;;;;;59.80;43.30;;;;;20.30;97976.00;;;;2041800;28;20296;-67
2023/03/14 02:09:57;;;;;;;56.03;40.60;;;;;20.30;97989.00;;;;2054476;28;20310;-67
2023/03/14 02:10:57;;;;;;;53.20;40.23;;;;;20.30;97982.00;;;;2054768;28;20236;-67
2023/03/14 02:11:58;;;;;;;55.87;39.83;;;;;20.30;97979.00;;;;2046718;28;20212;-67
2023/03/14 02:12:59;;;;;;;55.73;40.50;;;;;20.30;97984.00;;;;2038844;29;20268;-67
2023/03/14 02:14:00;;;;;;;51.10;38.45;;;;;20.30;97973.00;;;;2046740;28;20212;-67
2023/03/14 02:15:00;;;;;;;52.90;36.60;;;;;20.30;97971.00;;;;2036949;29;20221;-67
2023/03/14 02:16:00;;;;;;;47.50;36.47;;;;;20.30;97982.00;;;;2045385;28;20312;-67
2023/03/14 02:17:01;;;;;;;47.73;35.23;;;;;20.30;97952.00;;;;2063473;28;20219;-67
2023/03/14 02:18:02;;;;;;;45.50;36.38;;;;;20.30;97969.00;;;;2046327;28;20230;-67
2023/03/14 02:19:02;;;;;;;49.83;35.60;;;;;20.30;97973.00;;;;2046758;28;20227;-67
2023/03/14 02:20:25;;;;;;;47.50;35.53;;;;;20.30;97975.00;;;;2061962;28;20230;-67
2023/03/14 02:21:43;;;;;;;41.95;32.67;;;;;20.30;97967.00;;;;2054247;28;20245;-67
2023/03/14 02:22:44;;;;;;;40.67;31.60;;;;;20.30;97951.00;;;;2056812;28;20216;-67
2023/03/14 02:24:01;;;;;;;43.10;32.30;;;;;20.30;97987.00;;;;2054606;28;20652;-67
2023/03/14 02:25:14;;;;;;;40.92;31.58;;;;;20.30;97970.00;;;;2048871;28;20456;-67
2023/03/14 02:26:26;;;;;;;39.45;30.33;;;;;20.30;97962.00;;;;2056300;28;20227;-67
2023/03/14 02:27:26;;;;;;;37.75;29.08;;;;;20.30;97946.00;;;;2054769;28;20270;-67
2023/03/14 02:28:26;;;;;;;37.80;27.90;;;;;20.20;97984.00;;;;2047197;28;20252;-67
2023/03/14 02:29:27;;;;;;;34.93;25.30;;;;;20.30;97978.00;;;;2054542;28;20212;-67
2023/03/14 02:30:29;;;;;;;35.83;26.23;;;;;20.20;97985.00;;;;2054730;28;20218;-67
2023/03/14 02:31:29;;;;;;;36.10;25.20;;;;;20.20;97976.00;;;;2054696;28;20594;-67
2023/03/14 02:32:31;;;;;;;31.60;24.13;;;;;20.20;97973.00;;;;2063359;28;20218;-67
2023/03/14 02:33:31;;;;;;;34.53;25.67;;;;;20.30;97975.00;;;;2054733;28;20227;-67
2023/03/14 02:34:31;;;;;;;31.23;25.07;;;;;20.20;97966.00;;;;2054334;28;20244;-67
2023/03/14 02:35:35;;;;;;;33.03;24.43;;;;;20.20;97964.00;;;;2046716;28;20226;-67
2023/03/14 02:36:36;;;;;;;26.80;21.45;;;;;20.20;97950.00;;;;2039437;28;20221;-67
2023/03/14 02:38:10;;;;;;;26.80;21.43;;;;;20.20;97961.00;;;;2046608;28;20751;-67
2023/03/14 02:39:29;;;;;;;31.08;21.65;;;;;20.20;97959.00;;;;2054437;28;20231;-67
2023/03/14 02:40:29;;;;;;;27.88;20.20;;;;;20.20;97964.00;;;;2046243;28;20215;-67
2023/03/14 02:41:30;;;;;;;27.27;20.57;;;;;20.20;97970.00;;;;2046940;28;21072;-67
2023/03/14 02:42:30;;;;;;;27.50;21.10;;;;;20.20;97972.00;;;;2062956;28;20293;-67
2023/03/14 02:43:30;;;;;;;28.40;20.87;;;;;20.20;97985.00;;;;2063210;28;20211;-67
2023/03/14 02:44:31;;;;;;;24.50;19.50;;;;;20.20;97963.00;;;;2063179;28;20250;-67
2023/03/14 02:45:37;;;;;;;27.90;19.83;;;;;20.20;97971.00;;;;2063250;28;20222;-68
2023/03/14 02:46:38;;;;;;;22.42;17.13;;;;;20.20;97981.00;;;;2063431;28;20226;-67
2023/03/14 02:47:41;;;;;;;23.80;18.50;;;;;20.20;97974.00;;;;2063187;28;20215;-67
2023/03/14 02:48:57;;;;;;;24.45;16.88;;;;;20.20;97985.00;;;;2046281;28;20491;-67
2023/03/14 02:50:01;;;;;;;22.25;17.02;;;;;20.20;97975.00;;;;2040823;28;20256;-68
2023/03/14 02:51:01;;;;;;;20.05;15.40;;;;;20.20;97975.00;;;;2047804;28;20299;-67
2023/03/14 02:52:02;;;;;;;21.10;15.80;;;;;20.20;97984.00;;;;2063722;28;20257;-68
2023/03/14 02:53:02;;;;;;;18.60;14.60;;;;;20.20;97961.00;;;;2048033;28;20684;-67
2023/03/14 02:54:02;;;;;;;21.27;15.63;;;;;20.20;97965.00;;;;2048148;28;20760;-67
2023/03/14 02:55:03;;;;;;;21.20;14.27;;;;;20.20;97970.00;;;;2064594;28;20214;-68
2023/03/14 02:56:04;;;;;;;19.20;14.10;;;;;20.20;97959.00;;;;2064592;28;20685;-68
2023/03/14 02:57:04;;;;;;;19.60;15.30;;;;;20.20;97971.00;;;;2056053;28;20220;-67
2023/03/14 02:58:05;;;;;;;19.30;13.53;;;;;20.20;97963.00;;;;2055566;28;20458;-67
2023/03/14 02:59:05;;;;;;;16.20;13.23;;;;;20.20;97960.00;;;;2064599;28;20215;-68
2023/03/14 03:00:06;;;;;;;18.03;12.97;;;;;20.20;97963.00;;;;2055867;28;20212;-67
2023/03/14 03:01:07;;;;;;;16.20;12.80;;;;;20.20;97960.00;;;;2056078;28;20246;-68
2023/03/14 03:02:07;;;;;;;19.53;13.60;;;;;20.20;97961.00;;;;2056010;28;20294;-67
2023/03/14 03:03:07;;;;;;;17.10;12.30;;;;;20.20;97959.00;;;;2056029;28;20655;-67
2023/03/14 03:04:08;;;;;;;16.87;12.40;;;;;20.20;97949.00;;;;2064419;28;20713;-67
2023/03/14 03:05:08;;;;;;;14.90;11.73;;;;;20.20;97955.00;;;;2069736;28;20210;-67
2023/03/14 03:06:08;;;;;;;14.93;10.97;;;;;20.20;97956.00;;;;2072707;28;20210;-67
2023/03/14 03:07:09;;;;;;;15.70;12.10;;;;;20.20;97956.00;;;;2072747;28;20210;-68
2023/03/14 03:08:09;;;;;;;14.90;10.90;;;;;20.20;97918.00;;;;2072397;28;20220;-67
2023/03/14 03:09:10;;;;;;;14.37;11.20;;;;;20.20;97947.00;;;;2056020;28;20220;-67
2023/03/14 03:10:10;;;;;;;14.57;11.03;;;;;20.20;97947.00;;;;2055404;28;20535;-67
2023/03/14 03:11:11;;;;;;;12.80;10.20;;;;;20.10;97949.00;;;;2063996;28;20251;-67
2023/03/14 03:12:11;;;;;;;15.40;11.90;;;;;20.10;97948.00;;;;2072656;28;20301;-68
2023/03/14 03:13:11;;;;;;;12.97;10.30;;;;;20.10;97930.00;;;;2072749;28;20218;-68
2023/03/14 03:14:11;;;;;;;14.33;9.60;;;;;20.20;97946.00;;;;2072370;28;20269;-67
2023/03/14 03:15:12;;;;;;;12.03;9.00;;;;;19.70;97942.00;;;;2072572;28;20253;-67
2023/03/14 03:16:14;;;;;;;12.23;9.90;;;;;20.10;97933.00;;;;2072589;28;20214;-67
2023/03/14 03:17:15;;;;;;;13.07;9.50;;;;;20.10;97929.00;;;;2072472;28;20207;-67
2023/03/14 03:18:15;;;;;;;11.50;9.07;;;;;20.10;97930.00;;;;2072446;28;20232;-68
2023/03/14 03:19:17;;;;;;;12.40;8.70;;;;;20.10;97928.00;;;;2072627;28;20246;-68
2023/03/14 03:20:17;;;;;;;11.02;8.82;;;;;20.20;97929.00;;;;2072509;28;20709;-67
2023/03/14 03:21:18;;;;;;;10.70;8.60;;;;;20.10;97927.00;;;;2072538;28;20220;-67
2023/03/14 03:22:19;;;;;;;11.33;8.77;;;;;20.10;97931.00;;;;2072548;28;20583;-67
2023/03/14 03:23:19;;;;;;;9.97;8.07;;;;;20.20;97934.00;;;;2072624;28;20450;-68
2023/03/14 03:24:19;;;;;;;12.80;8.30;;;;;20.10;97926.00;;;;2072519;28;20218;-67
2023/03/14 03:25:20;;;;;;;11.10;7.80;;;;;20.20;97924.00;;;;2076823;28;20218;-68
2023/03/14 03:26:20;;;;;;;11.67;9.33;;;;;20.20;97925.00;;;;2072510;28;20246;-67
2023/03/14 03:27:20;;;;;;;11.70;8.10;;;;;20.20;97925.00;;;;2072641;28;20214;-68
2023/03/14 03:28:21;;;;;;;9.30;7.40;;;;;20.20;97925.00;;;;2073594;28;20284;-67
2023/03/14 03:29:21;;;;;;;10.40;7.40;;;;;20.10;97917.00;;;;2072555;28;20232;-67
2023/03/14 03:30:21;;;;;;;10.27;7.60;;;;;20.10;97910.00;;;;2072462;28;20218;-67
2023/03/14 03:31:22;;;;;;;11.60;7.00;;;;;20.10;97929.00;;;;2072342;28;20202;-67
2023/03/14 03:32:22;;;;;;;10.80;7.50;;;;;20.10;97923.00;;;;2072427;28;20202;-67
2023/03/14 03:33:24;;;;;;;11.30;7.27;;;;;20.10;97921.00;;;;2072588;28;20213;-67
2023/03/14 03:34:24;;;;;;;10.05;7.00;;;;;20.10;97930.00;;;;2072449;28;20249;-67
2023/03/14 03:35:24;;;;;;;10.47;6.87;;;;;20.10;97915.00;;;;2072229;28;20217;-68
2023/03/14 03:36:25;;;;;;;9.47;6.17;;;;;20.10;97914.00;;;;2071899;28;20206;-67
2023/03/14 03:37:25;;;;;;;9.80;6.80;;;;;20.10;97921.00;;;;2072465;28;20233;-67
2023/03/14 03:38:26;;;;;;;8.13;6.27;;;;;20.10;97923.00;;;;2080368;28;20229;-67
2023/03/14 03:39:26;;;;;;;9.17;6.80;;;;;20.10;97914.00;;;;2076198;28;20214;-67
2023/03/14 03:40:26;;;;;;;8.43;6.83;;;;;20.10;97937.00;;;;2072757;28;20229;-67
2023/03/14 03:41:27;;;;;;;9.17;6.67;;;;;20.10;97923.00;;;;2072527;28;20633;-67
2023/03/14 03:42:27;;;;;;;9.43;6.23;;;;;20.10;97933.00;;;;2072383;28;20576;-67
2023/03/14 03:43:27;;;;;;;7.87;6.13;;;;;20.10;97934.00;;;;2072738;28;20206;-68
2023/03/14 03:44:28;;;;;;;9.47;6.20;;;;;20.10;97934.00;;;;2071903;28;20205;-68
2023/03/14 03:45:28;;;;;;;9.10;5.73;;;;;20.10;97935.00;;;;2072428;28;20206;-67
2023/03/14 03:46:28;;;;;;;7.10;5.33;;;;;20.10;97945.00;;;;2072297;28;20285;-67
2023/03/14 03:47:30;;;;;;;8.03;5.60;;;;;20.10;97936.00;;;;2070864;28;20210;-68
2023/03/14 03:48:30;;;;;;;8.40;6.22;;;;;20.10;97935.00;;;;2071972;28;20206;-67
2023/03/14 03:49:31;;;;;;;7.20;5.43;;;;;20.10;97946.00;;;;2072280;28;20214;-67
2023/03/14 03:50:31;;;;;;;6.78;5.35;;;;;20.10;97933.00;;;;2072329;28;20214;-67
2023/03/14 03:51:32;;;;;;;6.83;5.20;;;;;20.10;97941.00;;;;2072352;28;20222;-67
2023/03/14 03:52:32;;;;;;;7.20;5.10;;;;;20.10;97937.00;;;;2072159;28;20218;-67
2023/03/14 03:53:33;;;;;;;7.50;5.50;;;;;20.10;97939.00;;;;2072391;28;20218;-67
2023/03/14 03:54:33;;;;;;;7.43;4.93;;;;;20.10;97923.00;;;;2072376;28;20283;-67
2023/03/14 03:55:33;;;;;;;6.83;4.30;;;;;20.10;97934.00;;;;2072436;28;20238;-67
2023/03/14 03:56:34;;;;;;;6.60;5.00;;;;;20.10;97926.00;;;;2072347;28;20723;-67
2023/03/14 03:57:34;;;;;;;7.50;5.13;;;;;20.00;97935.00;;;;2072154;28;20677;-68
2023/03/14 03:58:34;;;;;;;6.30;4.00;;;;;20.10;97926.00;;;;2072072;28;20740;-67
2023/03/14 03:59:35;;;;;;;6.90;4.27;;;;;20.10;97929.00;;;;2072344;28;20218;-67
2023/03/14 04:00:35;;;;;;;6.10;4.43;;;;;20.10;97922.00;;;;2072254;28;20238;-67
2023/03/14 04:01:35;;;;;;;6.00;4.50;;;;;20.00;97916.00;;;;2072198;28;20241;-67
2023/03/14 04:02:36;;;;;;;6.67;4.90;;;;;20.00;97927.00;;;;2072255;28;20218;-67
2023/03/14 04:03:38;;;;;;;6.90;4.30;;;;;20.10;97932.00;;;;2071619;28;20222;-67
2023/03/14 04:04:39;;;;;;;6.15;3.88;;;;;20.10;97932.00;;;;2071962;28;20647;-67
2023/03/14 04:05:39;;;;;;;6.83;4.23;;;;;20.00;97928.00;;;;2072140;28;20214;-67
2023/03/14 04:06:41;;;;;;;5.73;4.60;;;;;20.00;97934.00;;;;2072240;28;20280;-67
2023/03/14 04:07:41;;;;;;;6.07;4.20;;;;;20.00;97919.00;;;;2072279;28;20218;-67
2023/03/14 04:08:43;;;;;;;5.40;4.30;;;;;20.00;97925.00;;;;2072079;28;20685;-67
2023/03/14 04:09:43;;;;;;;5.97;4.20;;;;;20.00;97928.00;;;;2072150;28;20218;-68
2023/03/14 04:10:43;;;;;;;5.70;3.67;;;;;20.10;97943.00;;;;2072233;28;20648;-67
2023/03/14 04:11:44;;;;;;;5.40;3.97;;;;;20.00;97929.00;;;;2071493;28;21122;-67
2023/03/14 04:12:44;;;;;;;4.13;3.30;;;;;20.00;97935.00;;;;2072147;28;20260;-68
2023/03/14 04:13:44;;;;;;;5.37;3.40;;;;;20.00;97934.00;;;;2072215;28;20210;-68
2023/03/14 04:14:45;;;;;;;4.87;3.63;;;;;20.00;97937.00;;;;2071952;28;20225;-67
2023/03/14 04:15:45;;;;;;;4.43;3.40;;;;;20.00;97940.00;;;;2071928;28;20866;-67
2023/03/14 04:16:45;;;;;;;4.70;3.40;;;;;20.00;97934.00;;;;2072215;28;20220;-67
2023/03/14 04:17:46;;;;;;;4.53;3.27;;;;;20.10;97933.00;;;;2072113;28;20214;-67
2023/03/14 04:18:46;;;;;;;4.20;3.33;;;;;20.00;97936.00;;;;2071984;28;20225;-67
2023/03/14 04:19:49;;;;;;;4.30;3.10;;;;;20.00;97933.00;;;;2072207;28;20214;-68
2023/03/14 04:20:56;;;;;;;4.72;3.40;;;;;20.00;97931.00;;;;2071854;28;20210;-68
2023/03/14 04:21:56;;;;;;;5.60;3.33;;;;;20.00;97934.00;;;;2063416;28;20278;-67
2023/03/14 04:22:56;;;;;;;7.40;3.67;;;;;20.00;97933.00;;;;2063431;28;20225;-68
2023/03/14 04:23:56;;;;;;;4.70;2.73;;;;;20.00;97921.00;;;;2071986;28;20214;-67
2023/03/14 04:24:57;;;;;;;5.27;3.00;;;;;20.00;97931.00;;;;2072162;28;20297;-68
2023/03/14 04:25:57;;;;;;;3.90;2.80;;;;;20.00;97946.00;;;;2071996;28;20222;-68
2023/03/14 04:26:57;;;;;;;4.47;3.00;;;;;20.00;97938.00;;;;2072019;28;20230;-67
2023/03/14 04:27:58;;;;;;;5.30;3.07;;;;;20.00;97942.00;;;;2071842;28;20213;-67
2023/03/14 04:28:58;;;;;;;4.53;2.90;;;;;20.00;97946.00;;;;2072106;28;20213;-67
2023/03/14 04:29:58;;;;;;;4.47;2.70;;;;;20.00;97945.00;;;;2072109;28;20241;-68
2023/03/14 04:30:59;;;;;;;5.40;2.93;;;;;20.00;97941.00;;;;2071913;28;20210;-67
2023/03/14 04:31:59;;;;;;;4.43;2.60;;;;;19.90;97945.00;;;;2063204;28;20207;-68
2023/03/14 04:32:59;;;;;;;5.27;2.57;;;;;19.90;97942.00;;;;2063423;28;20261;-68
2023/03/14 04:34:00;;;;;;;3.90;2.67;;;;;20.00;97938.00;;;;2071645;28;20210;-67
2023/03/14 04:35:00;;;;;;;3.73;2.67;;;;;20.00;97927.00;;;;2072061;28;20245;-68
2023/03/14 04:36:00;;;;;;;3.20;2.23;;;;;20.00;97923.00;;;;2072074;28;20214;-67
2023/03/14 04:37:01;;;;;;;3.03;2.20;;;;;20.00;97924.00;;;;2072027;28;20300;-66
2023/03/14 04:38:01;;;;;;;3.37;1.90;;;;;20.00;97927.00;;;;2071668;28;20206;-67
2023/03/14 04:39:01;;;;;;;4.50;2.40;;;;;20.00;97933.00;;;;2072065;28;20273;-68
2023/03/14 04:40:03;;;;;;;4.07;1.97;;;;;20.00;97929.00;;;;2063345;28;20235;-67
2023/03/14 04:41:04;;;;;;;4.50;2.53;;;;;20.00;97934.00;;;;2063369;28;20219;-68
2023/03/14 04:42:05;;;;;;;5.03;1.90;;;;;20.00;97930.00;;;;2072017;28;20221;-67
2023/03/14 04:43:06;;;;;;;3.67;2.40;;;;;20.00;97939.00;;;;2071712;28;20904;-68
2023/03/14 04:44:06;;;;;;;5.13;2.33;;;;;19.90;97923.00;;;;2071954;28;20289;-67
2023/03/14 04:45:07;;;;;;;2.83;1.77;;;;;20.00;97920.00;;;;2071627;28;20949;-68
2023/03/14 04:46:07;;;;;;;3.83;1.90;;;;;19.90;97917.00;;;;2071923;28;20686;-67
2023/03/14 04:47:08;;;;;;;2.27;1.50;;;;;20.00;97926.00;;;;2072033;28;20218;-67
2023/03/14 04:48:09;;;;;;;2.03;1.37;;;;;20.00;97914.00;;;;2071566;28;20221;-67
2023/03/14 04:49:09;;;;;;;2.17;1.63;;;;;19.90;97920.00;;;;2071888;28;20237;-68
2023/03/14 04:50:10;;;;;;;2.40;1.40;;;;;19.90;97909.00;;;;2071918;28;20214;-68
2023/03/14 04:51:10;;;;;;;3.63;1.77;;;;;20.00;97917.00;;;;2071637;28;20233;-67
2023/03/14 04:52:10;;;;;;;5.10;2.07;;;;;19.90;97922.00;;;;2063119;28;20222;-67
2023/03/14 04:53:11;;;;;;;2.50;1.57;;;;;19.90;97920.00;;;;2063106;28;20218;-67
2023/03/14 04:54:11;;;;;;;3.27;1.67;;;;;19.90;97915.00;;;;2071656;28;20210;-67
2023/03/14 04:55:11;;;;;;;2.73;1.63;;;;;19.90;97923.00;;;;2071965;28;20213;-67
2023/03/14 04:56:12;;;;;;;2.47;1.60;;;;;19.90;97921.00;;;;2071951;28;20230;-67
2023/03/14 04:57:13;;;;;;;4.07;1.50;;;;;19.90;97921.00;;;;2071855;28;20297;-67
2023/03/14 04:58:13;;;;;;;2.40;1.33;;;;;19.90;97916.00;;;;2071572;28;20206;-67
2023/03/14 04:59:13;;;;;;;2.43;1.37;;;;;19.90;97910.00;;;;2063075;28;20306;-67
2023/03/14 05:00:14;;;;;;;2.50;1.37;;;;;19.90;97902.00;;;;2063143;28;20218;-67
2023/03/14 05:01:14;;;;;;;2.23;1.47;;;;;19.90;97902.00;;;;2062391;28;20234;-68
2023/03/14 05:02:14;;;;;;;2.73;1.20;;;;;19.90;97908.00;;;;2063263;28;20691;-67
2023/03/14 05:03:15;;;;;;;2.03;1.17;;;;;19.90;97910.00;;;;2071699;28;20261;-68
2023/03/14 05:04:16;;;;;;;2.95;1.80;;;;;19.90;97906.00;;;;2071436;28;20214;-67